LEZG/ZAZ METAR and TAF weather

Enter ICAO airport designator
Station Type Date Time Source
LEZG METAR 2022/01/29 02:00 UTC NOAA

LEZG 290200Z 34003KT CAVOK 01/M03 Q1033


Station Type Date Time Source
LEZG Decoded METAR 2022/01/29 02:00 UTC NOAA

Zaragoza / Aeropuerto, Spain (LEZG) 41-40N 001-01W 258M
Jan 28, 2022 - 09:00 PM EST / 2022.01.29 0200 UTC
Wind: from the NNW (340 degrees) at 3 MPH (3 KT):0
Visibility: greater than 7 mile(s):0
Temperature: 33 F (1 C)
Dew Point: 26 F (-3 C)
Relative Humidity: 74%
Pressure (altimeter): 30.50 in. Hg (1033 hPa)
ob: LEZG 290200Z 34003KT CAVOK 01/M03 Q1033
cycle: 2

Station Type Date Time Source
LEZG TAF 2022/01/28 18:27 UTC NOAA

TAF LEZG 281700Z 2818/2918 29009KT CAVOK TX13/2914Z TNM02/2906Z

Example: see airport list